Time;durP1;ratioP1;P1;durP2;ratioP2;P2;SDS_P1;SDS_P2;PMS_P1;PMS_P2;Temp;Humidity;BMP_temperature;BMP_pressure;BME280_temperature;BME280_humidity;BME280_pressure;Samples;Min_cycle;Max_cycle;Signal;HPM_P1;HPM_P2
2022/03/16 00:00:13;;;;;;;10.52;3.72;;;;;;;;;;7406241;19;20031;-78
2022/03/16 00:02:38;;;;;;;5.40;3.95;;;;;;;;;;7407974;19;20474;-78
2022/03/16 00:05:04;;;;;;;5.38;3.45;;;;;;;;;;7405942;19;20006;-78
2022/03/16 00:07:29;;;;;;;5.47;3.63;;;;;;;;;;7406195;19;20009;-78
2022/03/16 00:09:55;;;;;;;4.90;3.53;;;;;;;;;;7404774;19;20458;-78
2022/03/16 00:12:20;;;;;;;5.68;3.47;;;;;;;;;;7407520;19;19999;-78
2022/03/16 00:14:46;;;;;;;5.25;3.38;;;;;;;;;;7406123;19;20015;-78
2022/03/16 00:17:11;;;;;;;6.40;4.03;;;;;;;;;;7403178;19;19999;-78
2022/03/16 00:19:37;;;;;;;6.50;3.90;;;;;;;;;;7401408;19;20018;-78
2022/03/16 00:22:04;;;;;;;8.18;3.60;;;;;;;;;;7405879;19;20003;-78
2022/03/16 00:24:29;;;;;;;8.20;4.35;;;;;;;;;;7403866;19;20493;-78
2022/03/16 00:26:55;;;;;;;5.82;3.50;;;;;;;;;;7401805;19;20030;-79
2022/03/16 00:29:20;;;;;;;5.05;3.45;;;;;;;;;;7404494;19;20010;-79
2022/03/16 00:31:46;;;;;;;7.93;4.30;;;;;;;;;;7407279;19;20007;-78
2022/03/16 00:34:12;;;;;;;8.52;4.07;;;;;;;;;;7406606;19;20031;-78
2022/03/16 00:36:38;;;;;;;6.22;3.92;;;;;;;;;;7406708;19;20030;-78
2022/03/16 00:39:04;;;;;;;5.95;3.80;;;;;;;;;;7404525;19;20021;-79
2022/03/16 00:41:30;;;;;;;7.18;3.97;;;;;;;;;;7407855;19;20015;-78
2022/03/16 00:43:55;;;;;;;10.77;4.72;;;;;;;;;;7403943;19;20018;-78
2022/03/16 00:46:20;;;;;;;6.68;3.97;;;;;;;;;;7407830;19;20002;-78
2022/03/16 00:48:45;;;;;;;7.80;4.13;;;;;;;;;;7405846;19;20098;-79
2022/03/16 00:51:11;;;;;;;7.55;4.38;;;;;;;;;;7405393;19;20019;-78
2022/03/16 00:53:39;;;;;;;8.88;4.38;;;;;;;;;;7406878;19;20010;-79
2022/03/16 00:56:05;;;;;;;8.05;4.57;;;;;;;;;;7408540;19;19999;-78
2022/03/16 00:58:31;;;;;;;10.32;4.72;;;;;;;;;;7401095;19;20017;-79
2022/03/16 01:00:56;;;;;;;6.13;4.15;;;;;;;;;;7406475;19;20018;-78
2022/03/16 01:03:21;;;;;;;9.27;4.78;;;;;;;;;;7406336;19;20007;-78
2022/03/16 01:05:47;;;;;;;6.28;4.35;;;;;;;;;;7407065;19;20006;-79
2022/03/16 01:08:13;;;;;;;6.20;4.53;;;;;;;;;;7395768;19;20123;-79
2022/03/16 01:10:39;;;;;;;5.55;4.32;;;;;;;;;;7410097;19;20006;-79
2022/03/16 01:13:05;;;;;;;9.93;4.60;;;;;;;;;;7411151;19;20062;-78
2022/03/16 01:15:30;;;;;;;7.80;5.10;;;;;;;;;;7400103;19;20391;-79
2022/03/16 01:17:55;;;;;;;8.05;5.50;;;;;;;;;;7400847;19;20018;-79
2022/03/16 01:20:21;;;;;;;6.15;3.75;;;;;;;;;;7403781;19;20017;-79
2022/03/16 01:22:46;;;;;;;7.20;5.22;;;;;;;;;;7406443;19;20041;-78
2022/03/16 01:25:12;;;;;;;8.18;4.75;;;;;;;;;;7397743;19;20342;-77
2022/03/16 01:27:37;;;;;;;9.45;4.72;;;;;;;;;;7392976;19;20024;-77
2022/03/16 01:30:04;;;;;;;6.88;4.60;;;;;;;;;;7393622;19;20003;-77
2022/03/16 01:32:29;;;;;;;11.13;5.28;;;;;;;;;;7396106;19;20006;-78
2022/03/16 01:34:55;;;;;;;7.45;5.25;;;;;;;;;;7394201;19;20070;-77
2022/03/16 01:37:20;;;;;;;8.32;5.38;;;;;;;;;;7390540;19;20006;-77
2022/03/16 01:39:45;;;;;;;8.27;5.20;;;;;;;;;;7388246;19;20588;-77
2022/03/16 01:42:11;;;;;;;7.10;4.63;;;;;;;;;;7392046;19;20010;-77
2022/03/16 01:44:48;;;;;;;5.57;4.50;;;;;;;;;;7392394;19;20003;-77
2022/03/16 01:47:16;;;;;;;7.15;4.93;;;;;;;;;;7391020;19;20089;-77
2022/03/16 01:49:42;;;;;;;6.72;4.90;;;;;;;;;;7392392;19;20124;-77
2022/03/16 01:52:09;;;;;;;7.78;5.72;;;;;;;;;;7394266;19;20042;-78
2022/03/16 01:54:36;;;;;;;9.02;5.55;;;;;;;;;;7393660;19;20006;-78
2022/03/16 01:57:02;;;;;;;7.40;5.65;;;;;;;;;;7391279;19;20002;-78
2022/03/16 01:59:27;;;;;;;10.00;5.57;;;;;;;;;;7389889;19;20030;-77
2022/03/16 02:01:52;;;;;;;8.10;5.78;;;;;;;;;;7392096;19;20026;-77
2022/03/16 02:04:18;;;;;;;8.27;5.30;;;;;;;;;;7390987;19;19994;-77
2022/03/16 02:06:43;;;;;;;9.95;5.50;;;;;;;;;;7392195;19;20006;-77
2022/03/16 02:09:08;;;;;;;10.10;6.00;;;;;;;;;;7394662;19;20010;-78
2022/03/16 02:11:33;;;;;;;11.45;6.60;;;;;;;;;;7397505;19;20015;-78
2022/03/16 02:13:59;;;;;;;8.68;6.32;;;;;;;;;;7395561;19;19995;-78
2022/03/16 02:16:24;;;;;;;9.50;5.47;;;;;;;;;;7394519;19;20078;-78
2022/03/16 02:18:50;;;;;;;14.10;6.55;;;;;;;;;;7393479;19;20323;-79
2022/03/16 02:21:16;;;;;;;9.40;5.85;;;;;;;;;;7396253;19;20006;-80
2022/03/16 02:23:42;;;;;;;11.75;6.50;;;;;;;;;;7395515;19;20010;-79
2022/03/16 02:26:10;;;;;;;10.80;6.40;;;;;;;;;;7395968;19;20014;-81
2022/03/16 02:28:36;;;;;;;8.93;6.15;;;;;;;;;;7395070;19;20006;-81
2022/03/16 02:31:01;;;;;;;9.30;6.43;;;;;;;;;;7394387;19;20027;-81
2022/03/16 02:33:27;;;;;;;9.35;6.65;;;;;;;;;;7396092;19;20435;-81
2022/03/16 02:35:52;;;;;;;11.32;7.45;;;;;;;;;;7396982;19;20006;-81
2022/03/16 02:38:18;;;;;;;14.10;7.80;;;;;;;;;;7392404;19;20029;-81
2022/03/16 02:40:43;;;;;;;13.80;7.15;;;;;;;;;;7394991;19;20009;-82
2022/03/16 02:43:09;;;;;;;12.30;7.45;;;;;;;;;;7395285;19;20466;-81
2022/03/16 02:45:34;;;;;;;11.30;7.03;;;;;;;;;;7397483;19;20022;-81
2022/03/16 02:47:59;;;;;;;9.35;6.20;;;;;;;;;;7392025;19;20307;-81
2022/03/16 02:50:25;;;;;;;10.65;7.53;;;;;;;;;;7393069;19;20006;-81
2022/03/16 02:52:51;;;;;;;13.10;8.13;;;;;;;;;;7392751;19;20023;-81
2022/03/16 02:55:17;;;;;;;14.88;7.88;;;;;;;;;;7394213;19;20018;-79
2022/03/16 02:57:43;;;;;;;11.43;8.02;;;;;;;;;;7392111;19;19998;-82
2022/03/16 03:00:09;;;;;;;10.57;7.40;;;;;;;;;;7395194;19;20014;-80
2022/03/16 03:02:35;;;;;;;13.93;7.25;;;;;;;;;;7396563;19;20003;-79
2022/03/16 03:05:01;;;;;;;12.38;8.10;;;;;;;;;;7397795;19;20477;-80
2022/03/16 03:07:26;;;;;;;12.73;7.75;;;;;;;;;;7391457;19;20007;-80
2022/03/16 03:09:52;;;;;;;11.10;7.13;;;;;;;;;;7390345;19;20023;-83
2022/03/16 03:12:17;;;;;;;10.57;7.35;;;;;;;;;;7394115;19;20017;-80
2022/03/16 03:14:42;;;;;;;11.35;8.30;;;;;;;;;;7394532;19;20021;-80
2022/03/16 03:17:08;;;;;;;12.45;7.55;;;;;;;;;;7394382;19;20007;-80
2022/03/16 03:19:33;;;;;;;12.90;7.70;;;;;;;;;;7390595;19;20007;-80
2022/03/16 03:21:58;;;;;;;10.95;7.38;;;;;;;;;;7393202;19;21054;-80
2022/03/16 03:24:24;;;;;;;11.48;7.38;;;;;;;;;;7394503;19;20010;-79
2022/03/16 03:26:49;;;;;;;12.00;7.80;;;;;;;;;;7395064;19;20517;-80
2022/03/16 03:29:15;;;;;;;10.98;7.80;;;;;;;;;;7393441;19;20011;-81
2022/03/16 03:31:41;;;;;;;11.38;7.38;;;;;;;;;;7395509;19;20009;-79
2022/03/16 03:34:06;;;;;;;10.50;6.70;;;;;;;;;;7393731;19;20014;-80
2022/03/16 03:36:32;;;;;;;14.40;7.75;;;;;;;;;;7393229;19;19999;-79
2022/03/16 03:38:57;;;;;;;10.98;7.22;;;;;;;;;;7390991;19;20091;-80
2022/03/16 03:41:22;;;;;;;12.75;8.50;;;;;;;;;;7392711;19;20035;-80
2022/03/16 03:43:48;;;;;;;12.75;8.40;;;;;;;;;;7394178;19;20015;-80
2022/03/16 03:46:13;;;;;;;12.40;7.78;;;;;;;;;;7391998;19;20010;-80
2022/03/16 03:48:38;;;;;;;12.52;7.22;;;;;;;;;;7393247;19;20087;-80
2022/03/16 03:51:03;;;;;;;11.05;7.20;;;;;;;;;;7395189;19;20007;-79
2022/03/16 03:53:29;;;;;;;10.15;7.30;;;;;;;;;;7400220;19;20020;-79
2022/03/16 03:55:54;;;;;;;11.50;7.30;;;;;;;;;;7423304;19;20017;-77
2022/03/16 03:58:19;;;;;;;14.00;8.02;;;;;;;;;;7416905;19;20006;-77
2022/03/16 04:00:45;;;;;;;13.27;7.75;;;;;;;;;;7425726;19;20008;-77
2022/03/16 04:03:10;;;;;;;12.07;7.90;;;;;;;;;;7425147;19;20011;-77
2022/03/16 04:05:35;;;;;;;14.80;8.20;;;;;;;;;;7412231;19;20492;-78
2022/03/16 04:08:00;;;;;;;10.98;7.57;;;;;;;;;;7393921;19;20011;-79
2022/03/16 04:10:26;;;;;;;12.20;7.80;;;;;;;;;;7399594;19;20006;-77
2022/03/16 04:12:51;;;;;;;13.10;8.10;;;;;;;;;;7395806;19;20015;-80
2022/03/16 04:15:20;;;;;;;12.27;7.50;;;;;;;;;;7397176;19;20653;-79
2022/03/16 04:17:45;;;;;;;12.00;7.00;;;;;;;;;;7392717;19;20115;-80
2022/03/16 04:20:11;;;;;;;11.38;6.85;;;;;;;;;;7396858;19;20361;-79
2022/03/16 04:22:36;;;;;;;12.40;7.85;;;;;;;;;;7394757;19;20033;-79
2022/03/16 04:25:03;;;;;;;11.93;8.02;;;;;;;;;;7397749;19;20025;-79
2022/03/16 04:27:29;;;;;;;12.18;7.68;;;;;;;;;;7393659;19;20026;-79
2022/03/16 04:29:54;;;;;;;12.73;7.47;;;;;;;;;;7397445;19;20146;-78
2022/03/16 04:32:19;;;;;;;12.07;7.15;;;;;;;;;;7395893;19;20014;-80
2022/03/16 04:34:44;;;;;;;12.18;6.65;;;;;;;;;;7394917;19;20006;-78
2022/03/16 04:37:10;;;;;;;11.52;7.45;;;;;;;;;;7393633;19;20781;-79
2022/03/16 04:39:36;;;;;;;13.18;6.90;;;;;;;;;;7394058;19;20007;-78
2022/03/16 04:42:02;;;;;;;12.90;7.63;;;;;;;;;;7395978;19;20016;-79
2022/03/16 04:44:27;;;;;;;14.10;7.18;;;;;;;;;;7396811;19;20535;-78
2022/03/16 04:46:52;;;;;;;13.13;7.18;;;;;;;;;;7394558;19;20039;-78
2022/03/16 04:49:17;;;;;;;12.57;8.00;;;;;;;;;;7395763;19;20002;-79
2022/03/16 04:51:43;;;;;;;10.05;6.35;;;;;;;;;;7395542;19;20048;-79
2022/03/16 04:54:08;;;;;;;12.50;7.90;;;;;;;;;;7392089;19;20010;-81
2022/03/16 04:56:35;;;;;;;14.40;8.07;;;;;;;;;;7396017;19;20007;-81
2022/03/16 04:59:01;;;;;;;11.57;7.18;;;;;;;;;;7394191;19;20380;-78
2022/03/16 05:01:26;;;;;;;12.68;7.75;;;;;;;;;;7397659;19;20038;-78
2022/03/16 05:03:51;;;;;;;12.98;7.45;;;;;;;;;;7397214;19;20388;-79
2022/03/16 05:06:16;;;;;;;12.60;7.50;;;;;;;;;;7396017;19;20021;-79
2022/03/16 05:08:45;;;;;;;12.68;7.78;;;;;;;;;;7395323;19;20006;-79
2022/03/16 05:11:10;;;;;;;11.85;6.70;;;;;;;;;;7396225;19;20010;-79
2022/03/16 05:13:36;;;;;;;11.88;7.22;;;;;;;;;;7391767;19;20376;-80
2022/03/16 05:16:01;;;;;;;12.15;6.88;;;;;;;;;;7395549;19;20010;-79
2022/03/16 05:18:26;;;;;;;13.82;7.43;;;;;;;;;;7392118;19;20018;-79
2022/03/16 05:20:52;;;;;;;12.32;7.57;;;;;;;;;;7398557;19;20006;-79
2022/03/16 05:23:17;;;;;;;10.90;6.68;;;;;;;;;;7395246;19;20482;-80
2022/03/16 05:25:42;;;;;;;12.80;7.47;;;;;;;;;;7401201;19;20025;-79
2022/03/16 05:28:07;;;;;;;11.77;7.65;;;;;;;;;;7392641;19;20371;-78
2022/03/16 05:30:33;;;;;;;13.52;8.07;;;;;;;;;;7396925;19;20001;-78
2022/03/16 05:33:00;;;;;;;13.23;7.60;;;;;;;;;;7394344;19;19998;-79
2022/03/16 05:35:26;;;;;;;11.52;7.80;;;;;;;;;;7398714;19;20036;-79
2022/03/16 05:37:51;;;;;;;12.27;6.85;;;;;;;;;;7395863;19;20007;-79
2022/03/16 05:40:16;;;;;;;12.93;7.28;;;;;;;;;;7396409;19;20461;-79
2022/03/16 05:42:42;;;;;;;10.05;7.00;;;;;;;;;;7394316;19;20043;-78
2022/03/16 05:45:08;;;;;;;11.07;7.45;;;;;;;;;;7397915;19;20006;-79
2022/03/16 05:47:34;;;;;;;12.13;7.82;;;;;;;;;;7394807;19;20011;-79
2022/03/16 05:49:59;;;;;;;11.68;6.55;;;;;;;;;;7397242;19;20006;-79
2022/03/16 05:52:25;;;;;;;11.00;7.13;;;;;;;;;;7396267;19;20006;-78
2022/03/16 05:54:53;;;;;;;10.45;6.97;;;;;;;;;;7393263;19;20003;-79
2022/03/16 05:57:19;;;;;;;10.05;6.30;;;;;;;;;;7394903;19;20413;-78
2022/03/16 05:59:44;;;;;;;11.68;6.47;;;;;;;;;;7394370;19;20011;-79
2022/03/16 06:02:11;;;;;;;9.90;6.60;;;;;;;;;;7401546;19;20078;-78
2022/03/16 06:04:37;;;;;;;9.07;6.10;;;;;;;;;;7393679;19;19998;-79
2022/03/16 06:07:04;;;;;;;9.48;6.20;;;;;;;;;;7404373;19;20010;-79
2022/03/16 06:09:29;;;;;;;12.43;7.28;;;;;;;;;;7405913;19;20018;-79
2022/03/16 06:11:54;;;;;;;11.52;6.63;;;;;;;;;;7399297;19;20028;-79
2022/03/16 06:14:20;;;;;;;12.27;7.28;;;;;;;;;;7403927;19;20106;-80
2022/03/16 06:16:47;;;;;;;12.70;6.60;;;;;;;;;;7398946;19;19998;-79
2022/03/16 06:19:13;;;;;;;11.50;6.82;;;;;;;;;;7401551;19;20024;-78
2022/03/16 06:21:38;;;;;;;9.77;6.72;;;;;;;;;;7406100;19;19997;-79
2022/03/16 06:24:04;;;;;;;13.70;7.70;;;;;;;;;;7405142;19;19990;-79
2022/03/16 06:26:30;;;;;;;11.10;6.53;;;;;;;;;;7410579;19;20021;-80
2022/03/16 06:28:55;;;;;;;13.98;7.57;;;;;;;;;;7405834;19;20070;-79
2022/03/16 06:31:20;;;;;;;10.90;7.13;;;;;;;;;;7407837;19;20011;-78
2022/03/16 06:33:45;;;;;;;10.52;7.45;;;;;;;;;;7405606;19;20017;-79
2022/03/16 06:36:11;;;;;;;12.85;8.13;;;;;;;;;;7408156;19;20002;-79
2022/03/16 06:38:36;;;;;;;10.45;7.00;;;;;;;;;;7406615;19;20375;-79
2022/03/16 06:41:01;;;;;;;12.30;7.38;;;;;;;;;;7404782;19;20377;-78
2022/03/16 06:43:27;;;;;;;12.55;7.43;;;;;;;;;;7406130;19;20024;-80
2022/03/16 06:45:52;;;;;;;12.02;7.32;;;;;;;;;;7402062;19;20042;-79
2022/03/16 06:48:21;;;;;;;10.85;6.72;;;;;;;;;;7404225;19;20033;-79
2022/03/16 06:50:46;;;;;;;11.20;7.20;;;;;;;;;;7408496;19;20014;-77
2022/03/16 06:53:13;;;;;;;12.93;7.93;;;;;;;;;;7409112;19;20050;-79
2022/03/16 06:55:38;;;;;;;10.70;6.70;;;;;;;;;;7409219;19;20015;-78
2022/03/16 06:58:03;;;;;;;10.55;7.03;;;;;;;;;;7398004;19;19998;-78
2022/03/16 07:00:29;;;;;;;11.65;7.35;;;;;;;;;;7405640;19;20388;-78
2022/03/16 07:03:08;;;;;;;12.52;8.30;;;;;;;;;;7403362;19;20027;-78
2022/03/16 07:05:36;;;;;;;13.07;8.23;;;;;;;;;;7405653;19;20021;-78
2022/03/16 07:08:09;;;;;;;13.82;8.07;;;;;;;;;;7405593;19;20006;-78
2022/03/16 07:10:37;;;;;;;12.77;7.90;;;;;;;;;;7404523;19;20007;-78
2022/03/16 07:13:03;;;;;;;15.48;8.80;;;;;;;;;;7404575;19;20003;-78
2022/03/16 07:15:30;;;;;;;11.95;7.57;;;;;;;;;;7408506;19;20041;-78
2022/03/16 07:17:55;;;;;;;14.18;8.63;;;;;;;;;;7406139;19;20006;-78
2022/03/16 07:20:21;;;;;;;15.60;8.20;;;;;;;;;;7407380;19;20021;-78
2022/03/16 07:23:06;;;;;;;12.68;7.85;;;;;;;;;;7405013;19;20005;-79
2022/03/16 07:25:32;;;;;;;;;;;;;;;;;;7409063;19;20079;-79
2022/03/16 07:27:57;;;;;;;17.27;8.02;;;;;;;;;;7404130;19;19922;-79
2022/03/16 07:30:23;;;;;;;18.45;8.63;;;;;;;;;;7408412;19;20011;-78
2022/03/16 07:32:49;;;;;;;12.95;7.55;;;;;;;;;;7405072;19;19995;-78
2022/03/16 07:35:14;;;;;;;13.70;8.32;;;;;;;;;;7405004;19;20031;-78
2022/03/16 07:37:42;;;;;;;15.25;8.93;;;;;;;;;;7408411;19;20007;-78
2022/03/16 07:40:08;;;;;;;14.32;9.05;;;;;;;;;;7411362;19;20055;-78
2022/03/16 07:42:35;;;;;;;15.27;9.82;;;;;;;;;;7408873;19;20459;-78
2022/03/16 07:45:00;;;;;;;15.68;9.02;;;;;;;;;;7414082;19;20015;-78
2022/03/16 07:47:25;;;;;;;16.50;9.63;;;;;;;;;;7409854;19;20014;-78
2022/03/16 07:49:56;;;;;;;13.82;9.15;;;;;;;;;;7407608;19;20287;-79
2022/03/16 07:52:22;;;;;;;16.15;9.23;;;;;;;;;;7411590;19;20006;-80
2022/03/16 07:54:48;;;;;;;14.38;9.45;;;;;;;;;;7409726;19;20050;-78
2022/03/16 07:57:13;;;;;;;15.55;8.95;;;;;;;;;;7408180;19;20062;-78
2022/03/16 07:59:38;;;;;;;12.23;8.27;;;;;;;;;;7405505;19;20048;-78
2022/03/16 08:02:04;;;;;;;14.93;8.98;;;;;;;;;;7407909;19;20026;-79
2022/03/16 08:04:29;;;;;;;14.90;8.95;;;;;;;;;;7412865;19;20027;-78
2022/03/16 08:06:54;;;;;;;13.55;8.25;;;;;;;;;;7406185;19;20031;-78
2022/03/16 08:09:20;;;;;;;10.82;7.63;;;;;;;;;;7407782;19;20022;-78
2022/03/16 08:11:45;;;;;;;9.65;6.88;;;;;;;;;;7408485;19;20018;-78
2022/03/16 08:14:12;;;;;;;11.43;7.45;;;;;;;;;;7411931;19;20023;-78
2022/03/16 08:16:38;;;;;;;9.60;7.07;;;;;;;;;;7408118;19;20017;-78
2022/03/16 08:19:03;;;;;;;9.93;6.45;;;;;;;;;;7406770;19;19999;-79
2022/03/16 08:21:28;;;;;;;11.05;7.47;;;;;;;;;;7405425;19;20014;-78
2022/03/16 08:23:54;;;;;;;9.85;7.22;;;;;;;;;;7410679;19;20003;-79
2022/03/16 08:26:19;;;;;;;13.07;7.57;;;;;;;;;;7409529;19;20049;-78
2022/03/16 08:28:45;;;;;;;11.32;6.97;;;;;;;;;;7409472;19;20010;-78
2022/03/16 08:31:11;;;;;;;10.05;7.07;;;;;;;;;;7410699;19;20034;-78
2022/03/16 08:33:37;;;;;;;11.27;6.97;;;;;;;;;;7409655;19;20028;-79
2022/03/16 08:36:07;;;;;;;11.55;7.50;;;;;;;;;;7413208;19;20023;-78
2022/03/16 08:38:33;;;;;;;11.10;7.63;;;;;;;;;;7409039;19;20031;-78
2022/03/16 08:40:58;;;;;;;10.43;7.20;;;;;;;;;;7410194;19;20419;-79
2022/03/16 08:43:23;;;;;;;9.50;7.35;;;;;;;;;;7407729;19;20335;-81
2022/03/16 08:45:49;;;;;;;9.50;6.35;;;;;;;;;;7408584;19;20006;-78
2022/03/16 08:48:15;;;;;;;11.50;7.40;;;;;;;;;;7403920;19;20015;-78
2022/03/16 08:50:41;;;;;;;9.45;6.63;;;;;;;;;;7405119;19;20241;-78
2022/03/16 08:53:06;;;;;;;10.85;7.30;;;;;;;;;;7410389;19;20021;-78
2022/03/16 08:55:31;;;;;;;10.73;7.43;;;;;;;;;;7410904;19;20006;-78
2022/03/16 08:57:57;;;;;;;12.73;7.80;;;;;;;;;;7406504;19;19991;-78
2022/03/16 09:00:23;;;;;;;11.98;7.10;;;;;;;;;;7412280;19;20015;-81
2022/03/16 09:02:48;;;;;;;10.20;7.00;;;;;;;;;;7409023;19;20017;-78
2022/03/16 09:05:15;;;;;;;13.93;7.18;;;;;;;;;;7409658;19;20086;-80
2022/03/16 09:07:41;;;;;;;12.18;7.72;;;;;;;;;;7409671;19;20232;-81
2022/03/16 09:10:08;;;;;;;12.85;7.38;;;;;;;;;;7403590;19;20021;-78
2022/03/16 09:12:36;;;;;;;12.63;7.57;;;;;;;;;;7408710;19;20415;-79
2022/03/16 09:15:01;;;;;;;10.30;6.90;;;;;;;;;;7406748;19;20082;-79
2022/03/16 09:17:28;;;;;;;13.27;7.63;;;;;;;;;;7411003;19;21842;-80
2022/03/16 09:19:53;;;;;;;11.45;7.82;;;;;;;;;;7408406;19;20047;-80
2022/03/16 09:22:18;;;;;;;10.75;6.85;;;;;;;;;;7412972;19;20010;-79
2022/03/16 09:24:44;;;;;;;8.55;6.35;;;;;;;;;;7404049;19;20614;-78
2022/03/16 09:27:10;;;;;;;10.10;7.28;;;;;;;;;;7401015;19;20013;-78
2022/03/16 09:29:35;;;;;;;10.23;7.57;;;;;;;;;;7402436;19;20019;-78
2022/03/16 09:32:01;;;;;;;9.68;6.90;;;;;;;;;;7400943;19;20632;-78
2022/03/16 09:34:26;;;;;;;9.40;6.60;;;;;;;;;;7402517;19;20118;-78
2022/03/16 09:36:51;;;;;;;9.10;6.25;;;;;;;;;;7402764;19;20003;-78
2022/03/16 09:39:17;;;;;;;8.93;6.75;;;;;;;;;;7400967;19;20422;-78
2022/03/16 09:41:42;;;;;;;7.45;5.65;;;;;;;;;;7402602;19;20002;-79
2022/03/16 09:44:09;;;;;;;8.77;5.97;;;;;;;;;;7404012;19;20027;-77
2022/03/16 09:46:36;;;;;;;8.43;5.68;;;;;;;;;;7399452;19;20017;-78
2022/03/16 09:49:04;;;;;;;7.22;5.45;;;;;;;;;;7399142;19;20104;-78
2022/03/16 09:51:35;;;;;;;8.27;5.70;;;;;;;;;;7401107;19;20070;-78
2022/03/16 09:54:01;;;;;;;7.13;5.00;;;;;;;;;;7403766;19;20022;-77
2022/03/16 09:56:26;;;;;;;8.30;6.03;;;;;;;;;;7400482;19;20566;-78
2022/03/16 09:58:51;;;;;;;7.57;5.30;;;;;;;;;;7395944;19;20003;-78
2022/03/16 10:01:18;;;;;;;7.10;5.70;;;;;;;;;;7399105;19;20017;-78
2022/03/16 10:03:48;;;;;;;7.63;5.32;;;;;;;;;;7394180;19;20011;-78
2022/03/16 10:06:14;;;;;;;7.95;4.80;;;;;;;;;;7397410;19;20066;-78
2022/03/16 10:08:40;;;;;;;7.82;5.53;;;;;;;;;;7392983;19;20013;-77
2022/03/16 10:13:59;;;;;;;8.13;5.18;;;;;;;;;;7393406;19;20014;-78
2022/03/16 10:16:24;;;;;;;8.70;6.03;;;;;;;;;;7392418;19;20015;-78
2022/03/16 10:18:55;;;;;;;7.22;5.32;;;;;;;;;;7392167;19;20045;-78
2022/03/16 10:21:21;;;;;;;9.45;6.00;;;;;;;;;;7394072;19;20009;-78
2022/03/16 10:23:46;;;;;;;8.27;5.57;;;;;;;;;;7394474;19;20014;-79
2022/03/16 10:26:17;;;;;;;7.40;5.80;;;;;;;;;;7393019;19;20023;-78
2022/03/16 10:28:45;;;;;;;8.68;6.25;;;;;;;;;;7388997;19;20010;-78
2022/03/16 10:31:12;;;;;;;7.30;5.55;;;;;;;;;;7394730;19;20028;-78
2022/03/16 10:33:50;;;;;;;7.53;6.10;;;;;;;;;;7392743;19;20334;-78
2022/03/16 10:36:22;;;;;;;8.38;6.20;;;;;;;;;;7391895;19;20018;-77
2022/03/16 10:38:58;;;;;;;9.40;6.43;;;;;;;;;;7396359;19;20434;-78
2022/03/16 10:47:16;;;;;;;7.75;5.93;;;;;;;;;;7394208;19;20014;-78
2022/03/16 10:49:43;;;;;;;10.00;6.65;;;;;;;;;;7390216;19;20054;-78
2022/03/16 10:52:11;;;;;;;9.45;6.45;;;;;;;;;;7393006;19;20114;-78
2022/03/16 10:54:37;;;;;;;9.48;6.80;;;;;;;;;;7394401;19;20013;-78
2022/03/16 10:57:10;;;;;;;10.05;6.70;;;;;;;;;;7390273;19;20006;-78
2022/03/16 10:59:37;;;;;;;9.40;6.97;;;;;;;;;;7386872;19;19995;-78
2022/03/16 11:02:05;;;;;;;10.57;7.55;;;;;;;;;;7391345;19;20014;-78
2022/03/16 11:04:35;;;;;;;10.82;7.15;;;;;;;;;;7387458;19;20055;-78
2022/03/16 11:07:03;;;;;;;9.30;7.07;;;;;;;;;;7388758;19;20005;-77
2022/03/16 11:09:30;;;;;;;11.23;6.85;;;;;;;;;;7403173;19;20010;-79
2022/03/16 11:14:40;;;;;;;10.98;7.30;;;;;;;;;;7425214;19;20010;-80
2022/03/16 11:17:06;;;;;;;11.07;7.45;;;;;;;;;;7426710;19;20026;-79
2022/03/16 11:19:33;;;;;;;9.90;7.35;;;;;;;;;;7408373;19;20006;-78
2022/03/16 11:22:08;;;;;;;11.82;7.57;;;;;;;;;;7397940;19;20400;-77
2022/03/16 11:24:37;;;;;;;10.03;7.37;;;;;;;;;;7398543;19;20007;-78
2022/03/16 11:27:24;;;;;;;10.23;7.07;;;;;;;;;;7392614;19;20035;-77
2022/03/16 11:30:06;;;;;;;10.05;7.25;;;;;;;;;;7393616;19;20010;-77
2022/03/16 11:32:38;;;;;;;11.20;8.15;;;;;;;;;;7399380;19;20047;-77
2022/03/16 11:35:08;;;;;;;11.75;7.65;;;;;;;;;;7394837;19;20043;-78
2022/03/16 11:37:34;;;;;;;11.25;8.02;;;;;;;;;;7396142;19;20022;-77
2022/03/16 11:40:15;;;;;;;10.32;7.63;;;;;;;;;;7395471;19;20002;-78
2022/03/16 11:43:06;;;;;;;10.30;7.53;;;;;;;;;;7394740;19;20027;-77
2022/03/16 11:45:35;;;;;;;12.55;8.43;;;;;;;;;;7398738;19;20007;-77
2022/03/16 11:48:33;;;;;;;11.35;7.90;;;;;;;;;;7395576;19;20126;-77
2022/03/16 11:51:16;;;;;;;9.80;7.05;;;;;;;;;;7396064;19;20094;-78
2022/03/16 11:56:29;;;;;;;10.63;7.90;;;;;;;;;;7398402;19;19998;-78
2022/03/16 11:59:02;;;;;;;10.90;7.70;;;;;;;;;;7394922;19;20026;-78
2022/03/16 12:01:32;;;;;;;11.73;8.32;;;;;;;;;;7396264;19;20010;-77
2022/03/16 12:04:11;;;;;;;13.15;8.57;;;;;;;;;;7398589;19;20027;-77
2022/03/16 12:07:04;;;;;;;11.48;7.78;;;;;;;;;;7392888;19;20718;-78
2022/03/16 12:09:44;;;;;;;14.88;7.93;;;;;;;;;;7396708;19;20334;-78
2022/03/16 12:15:10;;;;;;;9.80;7.68;;;;;;;;;;7397729;19;20063;-78
2022/03/16 12:17:37;;;;;;;11.88;8.43;;;;;;;;;;7392829;19;20584;-77
2022/03/16 12:20:10;;;;;;;10.80;7.80;;;;;;;;;;7393736;19;20010;-78
2022/03/16 12:22:46;;;;;;;10.93;7.85;;;;;;;;;;7396860;19;20018;-78
2022/03/16 12:25:27;;;;;;;13.30;9.20;;;;;;;;;;7395150;19;20006;-77
2022/03/16 12:30:45;;;;;;;11.00;8.18;;;;;;;;;;7399355;19;20506;-78
2022/03/16 12:33:12;;;;;;;10.20;7.82;;;;;;;;;;7398489;19;20013;-77
2022/03/16 12:35:38;;;;;;;10.25;7.50;;;;;;;;;;7397897;19;20007;-78
2022/03/16 12:38:10;;;;;;;11.55;8.20;;;;;;;;;;7393396;19;20018;-78
2022/03/16 12:43:27;;;;;;;12.32;8.55;;;;;;;;;;7395359;19;20047;-77
2022/03/16 12:46:16;;;;;;;11.73;8.40;;;;;;;;;;7392863;19;20066;-78
2022/03/16 12:48:47;;;;;;;12.48;7.90;;;;;;;;;;7394756;19;20010;-78
2022/03/16 12:51:18;;;;;;;12.93;8.35;;;;;;;;;;7394722;19;20029;-78
2022/03/16 12:53:46;;;;;;;13.80;8.50;;;;;;;;;;7395216;19;20370;-78
2022/03/16 12:56:15;;;;;;;11.63;8.23;;;;;;;;;;7392671;19;20058;-78
2022/03/16 12:58:41;;;;;;;11.27;8.40;;;;;;;;;;7391100;19;20386;-77
2022/03/16 13:01:16;;;;;;;12.70;9.35;;;;;;;;;;7396373;19;20089;-78
2022/03/16 13:03:42;;;;;;;11.50;8.48;;;;;;;;;;7392922;19;20504;-77
2022/03/16 13:06:17;;;;;;;12.23;8.27;;;;;;;;;;7391807;19;20018;-77
2022/03/16 13:08:46;;;;;;;10.55;7.70;;;;;;;;;;7386694;19;20022;-78
2022/03/16 13:11:30;;;;;;;10.75;7.93;;;;;;;;;;7389797;19;20013;-78
2022/03/16 13:14:13;;;;;;;13.27;8.73;;;;;;;;;;7387380;19;20034;-78
2022/03/16 13:16:38;;;;;;;10.25;8.20;;;;;;;;;;7394759;19;20018;-78
2022/03/16 13:19:06;;;;;;;10.60;7.90;;;;;;;;;;7397155;19;20333;-78
2022/03/16 13:21:34;;;;;;;11.25;7.95;;;;;;;;;;7394659;19;20010;-78
2022/03/16 13:24:08;;;;;;;9.90;7.82;;;;;;;;;;7395190;19;20014;-78
2022/03/16 13:26:34;;;;;;;10.60;8.35;;;;;;;;;;7394766;19;20092;-78
2022/03/16 13:29:03;;;;;;;10.25;7.57;;;;;;;;;;7388694;19;20003;-78
2022/03/16 13:31:30;;;;;;;13.70;8.68;;;;;;;;;;7393775;19;20014;-78
2022/03/16 13:34:03;;;;;;;11.02;8.57;;;;;;;;;;7390797;19;20375;-77
2022/03/16 13:36:34;;;;;;;11.50;8.27;;;;;;;;;;7388764;19;20474;-79
2022/03/16 13:39:21;;;;;;;10.43;8.43;;;;;;;;;;7388192;19;20014;-78
2022/03/16 13:42:04;;;;;;;13.77;9.27;;;;;;;;;;7386771;19;20030;-78
2022/03/16 13:44:34;;;;;;;9.93;8.10;;;;;;;;;;7393528;19;20007;-78
2022/03/16 13:46:59;;;;;;;12.77;7.97;;;;;;;;;;7392292;19;20354;-78
2022/03/16 13:49:34;;;;;;;13.40;8.48;;;;;;;;;;7390097;19;19999;-78
2022/03/16 13:52:02;;;;;;;11.88;8.60;;;;;;;;;;7393354;19;20006;-78
2022/03/16 13:54:28;;;;;;;11.15;8.85;;;;;;;;;;7393372;19;20114;-78
2022/03/16 13:56:54;;;;;;;11.85;8.80;;;;;;;;;;7391087;19;20401;-78
2022/03/16 13:59:19;;;;;;;11.75;8.80;;;;;;;;;;7391379;19;20018;-78
2022/03/16 14:01:45;;;;;;;10.65;8.18;;;;;;;;;;7393982;19;20011;-78
2022/03/16 14:04:10;;;;;;;9.88;7.30;;;;;;;;;;7391509;19;20007;-77
2022/03/16 14:06:40;;;;;;;10.13;7.30;;;;;;;;;;7393027;19;20035;-78
2022/03/16 14:09:21;;;;;;;10.77;7.82;;;;;;;;;;7391760;19;20021;-78
2022/03/16 14:11:47;;;;;;;12.27;8.95;;;;;;;;;;7392978;19;20007;-78
2022/03/16 14:14:15;;;;;;;11.00;8.43;;;;;;;;;;7390593;19;20014;-78
2022/03/16 14:16:44;;;;;;;12.05;8.82;;;;;;;;;;7387906;19;20048;-78
2022/03/16 14:19:35;;;;;;;12.50;8.60;;;;;;;;;;7386246;19;20136;-78
2022/03/16 14:22:04;;;;;;;12.15;8.88;;;;;;;;;;7386864;19;20014;-79
2022/03/16 14:24:30;;;;;;;11.60;7.95;;;;;;;;;;7390301;19;21162;-78
2022/03/16 14:26:55;;;;;;;10.63;7.95;;;;;;;;;;7401230;19;20006;-79
2022/03/16 14:29:22;;;;;;;10.38;8.00;;;;;;;;;;7390543;19;20077;-78
2022/03/16 14:31:48;;;;;;;8.43;7.15;;;;;;;;;;7393719;19;20007;-78
2022/03/16 14:34:13;;;;;;;10.70;8.30;;;;;;;;;;7399248;19;20088;-79
2022/03/16 14:36:39;;;;;;;11.77;8.50;;;;;;;;;;7395796;19;20155;-78
2022/03/16 14:39:04;;;;;;;12.02;8.88;;;;;;;;;;7393703;19;20029;-78
2022/03/16 14:41:29;;;;;;;13.40;8.55;;;;;;;;;;7400076;19;20107;-78
2022/03/16 14:43:54;;;;;;;10.88;7.78;;;;;;;;;;7322310;19;20018;-78
2022/03/16 14:46:20;;;;;;;9.82;8.05;;;;;;;;;;7392148;19;20122;-79
2022/03/16 14:48:45;;;;;;;11.75;8.25;;;;;;;;;;7391717;19;20011;-78
2022/03/16 14:51:11;;;;;;;11.93;8.55;;;;;;;;;;7390742;19;20010;-78
2022/03/16 14:53:36;;;;;;;11.75;8.07;;;;;;;;;;7389493;19;20466;-77
2022/03/16 14:56:02;;;;;;;11.45;8.65;;;;;;;;;;7391443;19;20010;-79